createdAt,value
2017-07-09T00:00:43.665Z,0
2017-07-09T00:01:43.637Z,0
2017-07-09T00:02:43.626Z,0
2017-07-09T00:03:43.601Z,0
2017-07-09T00:04:43.586Z,0
2017-07-09T00:05:43.564Z,0
2017-07-09T00:06:43.244Z,0
2017-07-09T00:07:43.216Z,0
2017-07-09T00:08:43.507Z,0
2017-07-09T00:09:43.485Z,0
2017-07-09T00:10:43.469Z,0
2017-07-09T00:11:43.450Z,0
2017-07-09T00:12:43.423Z,0
2017-07-09T00:13:43.420Z,0
2017-07-09T00:14:43.396Z,0
2017-07-09T00:15:43.373Z,0
2017-07-09T00:16:43.357Z,0
2017-07-09T00:17:43.350Z,0
2017-07-09T00:18:43.319Z,0
2017-07-09T00:19:42.994Z,0
2017-07-09T00:20:43.278Z,0
2017-07-09T00:21:43.265Z,0
2017-07-09T00:22:42.633Z,0
2017-07-09T00:23:43.222Z,0
2017-07-09T00:24:42.898Z,0
2017-07-09T00:25:43.189Z,0
2017-07-09T00:26:43.164Z,0
2017-07-09T00:27:42.845Z,0
2017-07-09T00:28:43.131Z,0
2017-07-09T00:29:43.110Z,0
2017-07-09T00:30:43.094Z,0
2017-07-09T00:31:43.074Z,0
2017-07-09T00:32:42.752Z,0
2017-07-09T00:33:43.032Z,0
2017-07-09T00:34:43.015Z,0
2017-07-09T00:35:42.998Z,0
2017-07-09T00:36:42.980Z,0
2017-07-09T00:37:42.660Z,0
2017-07-09T00:38:42.944Z,0
2017-07-09T00:39:42.922Z,0
2017-07-09T00:40:42.900Z,0
2017-07-09T00:41:42.280Z,0
2017-07-09T00:42:42.557Z,0
2017-07-09T00:43:42.844Z,0
2017-07-09T00:44:42.823Z,0
2017-07-09T00:45:42.804Z,0
2017-07-09T00:46:42.486Z,0
2017-07-09T00:47:42.768Z,0
2017-07-09T00:48:42.445Z,0
2017-07-09T00:49:42.423Z,0
2017-07-09T00:50:42.409Z,0
2017-07-09T00:51:42.386Z,0
2017-07-09T00:52:42.372Z,0
2017-07-09T00:53:42.354Z,0
2017-07-09T00:54:42.697Z,0
2017-07-09T00:55:42.309Z,0
2017-07-09T00:56:42.350Z,0
2017-07-09T00:57:42.277Z,0
2017-07-09T00:58:42.255Z,0
2017-07-09T00:59:42.233Z,0
2017-07-09T01:00:42.209Z,0
2017-07-09T01:01:42.504Z,0
2017-07-09T01:02:42.174Z,0
2017-07-09T01:03:42.461Z,0
2017-07-09T01:04:42.444Z,0
2017-07-09T01:05:41.811Z,0
2017-07-09T01:06:42.103Z,0
2017-07-09T01:07:42.385Z,0
2017-07-09T01:08:42.364Z,0
2017-07-09T01:09:42.354Z,0
2017-07-09T01:10:42.336Z,0
2017-07-09T01:11:42.307Z,0
2017-07-09T01:12:42.286Z,0
2017-07-09T01:13:41.968Z,0
2017-07-09T01:14:42.243Z,0
2017-07-09T01:15:41.616Z,0
2017-07-09T01:16:42.210Z,0
2017-07-09T01:17:42.190Z,0
2017-07-09T01:18:42.167Z,0
2017-07-09T01:19:42.144Z,0
2017-07-09T01:20:42.123Z,0
2017-07-09T01:21:42.115Z,0
2017-07-09T01:22:41.479Z,0
2017-07-09T01:23:41.762Z,0
2017-07-09T01:24:41.752Z,0
2017-07-09T01:25:42.039Z,0
2017-07-09T01:26:41.710Z,0
2017-07-09T01:27:41.992Z,0
2017-07-09T01:28:41.673Z,0
2017-07-09T01:29:41.648Z,0
2017-07-09T01:30:41.636Z,0
2017-07-09T01:31:41.928Z,0
2017-07-09T01:32:41.901Z,0
2017-07-09T01:33:41.880Z,0
2017-07-09T01:34:41.603Z,0
2017-07-09T01:35:41.537Z,0
2017-07-09T01:36:41.818Z,0
2017-07-09T01:37:41.800Z,0
2017-07-09T01:38:41.785Z,0
2017-07-09T01:39:41.762Z,0
2017-07-09T01:40:41.436Z,0
2017-07-09T01:41:41.728Z,0
2017-07-09T01:42:41.698Z,0
2017-07-09T01:43:41.678Z,0
2017-07-09T01:44:41.660Z,0
2017-07-09T01:45:41.033Z,0
2017-07-09T01:46:41.622Z,0
2017-07-09T01:47:41.596Z,0
2017-07-09T01:48:41.275Z,0
2017-07-09T01:49:41.563Z,0
2017-07-09T01:50:41.544Z,0
2017-07-09T01:51:41.529Z,0
2017-07-09T01:52:41.505Z,0
2017-07-09T01:53:41.180Z,0
2017-07-09T01:54:41.466Z,0
2017-07-09T01:55:41.440Z,0
2017-07-09T01:56:41.120Z,0
2017-07-09T01:57:41.403Z,0
2017-07-09T01:58:41.388Z,0
2017-07-09T01:59:41.372Z,0
2017-07-09T02:00:41.349Z,0
2017-07-09T02:01:41.324Z,0
2017-07-09T02:02:41.001Z,0
2017-07-09T02:03:40.979Z,0
2017-07-09T02:04:41.267Z,0
2017-07-09T02:05:41.248Z,0
2017-07-09T02:06:40.919Z,0
2017-07-09T02:07:41.208Z,0
2017-07-09T02:08:40.881Z,0
2017-07-09T02:09:41.176Z,0
2017-07-09T02:10:41.149Z,0
2017-07-09T02:11:40.839Z,0
2017-07-09T02:12:40.497Z,0
2017-07-09T02:13:40.171Z,0
2017-07-09T02:14:40.762Z,0
2017-07-09T02:15:40.740Z,0
2017-07-09T02:16:40.420Z,0
2017-07-09T02:17:41.006Z,0
2017-07-09T02:18:40.994Z,0
2017-07-09T02:19:40.681Z,0
2017-07-09T02:20:40.947Z,0
2017-07-09T02:21:40.929Z,0
2017-07-09T02:22:39.992Z,0
2017-07-09T02:23:40.884Z,0
2017-07-09T02:24:40.559Z,0
2017-07-09T02:25:40.541Z,0
2017-07-09T02:26:40.519Z,0
2017-07-09T02:27:40.194Z,0
2017-07-09T02:28:40.183Z,0
2017-07-09T02:29:40.762Z,0
2017-07-09T02:30:40.444Z,0
2017-07-09T02:31:40.419Z,0
2017-07-09T02:32:40.400Z,0
2017-07-09T02:33:40.381Z,0
2017-07-09T02:34:40.054Z,0
2017-07-09T02:35:40.337Z,0
2017-07-09T02:36:40.017Z,0
2017-07-09T02:37:40.301Z,4
2017-07-09T02:38:40.280Z,4
2017-07-09T02:39:40.261Z,4
2017-07-09T02:40:40.247Z,0
2017-07-09T02:41:40.527Z,0
2017-07-09T02:42:40.506Z,4
2017-07-09T02:43:40.482Z,4
2017-07-09T02:44:40.468Z,4
2017-07-09T02:45:40.139Z,4
2017-07-09T02:46:40.118Z,4
2017-07-09T02:47:40.457Z,4
2017-07-09T02:48:39.778Z,4
2017-07-09T02:49:40.062Z,4
2017-07-09T02:50:40.343Z,4
2017-07-09T02:51:40.024Z,8
2017-07-09T02:52:40.314Z,4
2017-07-09T02:53:40.288Z,8
2017-07-09T02:54:40.266Z,12
2017-07-09T02:55:40.254Z,12
2017-07-09T02:56:40.225Z,12
2017-07-09T02:57:39.905Z,12
2017-07-09T02:58:39.880Z,16
2017-07-09T02:59:39.861Z,20
2017-07-09T03:00:40.149Z,16
2017-07-09T03:01:40.130Z,20
2017-07-09T03:02:40.107Z,24
2017-07-09T03:03:40.097Z,28
2017-07-09T03:04:40.076Z,36
2017-07-09T03:05:40.049Z,44
2017-07-09T03:06:40.027Z,52
2017-07-09T03:07:40.007Z,60
2017-07-09T03:08:40.054Z,68
2017-07-09T03:09:39.359Z,80
2017-07-09T03:10:39.943Z,88
2017-07-09T03:11:39.621Z,100
2017-07-09T03:12:39.297Z,112
2017-07-09T03:13:39.581Z,120
2017-07-09T03:14:39.868Z,136
2017-07-09T03:15:39.550Z,152
2017-07-09T03:16:39.830Z,160
2017-07-09T03:17:39.818Z,172
2017-07-09T03:18:39.486Z,180
2017-07-09T03:19:39.464Z,192
2017-07-09T03:20:39.756Z,208
2017-07-09T03:21:39.730Z,228
2017-07-09T03:22:39.097Z,244
2017-07-09T03:23:39.691Z,264
2017-07-09T03:24:39.668Z,280
2017-07-09T03:25:39.343Z,296
2017-07-09T03:26:39.625Z,312
2017-07-09T03:27:39.304Z,332
2017-07-09T03:28:39.282Z,352
2017-07-09T03:29:39.569Z,372
2017-07-09T03:30:39.250Z,396
2017-07-09T03:31:39.526Z,416
2017-07-09T03:32:39.510Z,440
2017-07-09T03:33:39.488Z,472
2017-07-09T03:34:39.165Z,508
2017-07-09T03:35:39.147Z,548
2017-07-09T03:36:39.430Z,588
2017-07-09T03:37:39.407Z,624
2017-07-09T03:38:39.392Z,660
2017-07-09T03:39:39.366Z,700
2017-07-09T03:40:39.349Z,736
2017-07-09T03:41:39.029Z,776
2017-07-09T03:42:39.312Z,824
2017-07-09T03:43:38.985Z,872
2017-07-09T03:44:39.276Z,924
2017-07-09T03:45:38.946Z,968
2017-07-09T03:46:39.231Z,1012
2017-07-09T03:47:39.213Z,1060
2017-07-09T03:48:39.188Z,1116
2017-07-09T03:49:39.176Z,1172
2017-07-09T03:50:39.156Z,1224
2017-07-09T03:51:38.825Z,1264
2017-07-09T03:52:39.122Z,1300
2017-07-09T03:53:39.100Z,1328
2017-07-09T03:54:39.072Z,1352
2017-07-09T03:55:39.051Z,1388
2017-07-09T03:56:39.032Z,1440
2017-07-09T03:57:39.012Z,1504
2017-07-09T03:58:38.990Z,1588
2017-07-09T03:59:38.973Z,1672
2017-07-09T04:00:38.950Z,1788
2017-07-09T04:01:38.940Z,1928
2017-07-09T04:02:38.603Z,2084
2017-07-09T04:03:38.890Z,2264
2017-07-09T04:04:38.877Z,2440
2017-07-09T04:05:38.546Z,2612
2017-07-09T04:06:38.525Z,2788
2017-07-09T04:07:38.819Z,2936
2017-07-09T04:08:38.789Z,3052
2017-07-09T04:09:38.768Z,3144
2017-07-09T04:10:38.442Z,3244
2017-07-09T04:11:38.790Z,3320
2017-07-09T04:12:38.712Z,3336
2017-07-09T04:13:38.380Z,3316
2017-07-09T04:14:38.674Z,3300
2017-07-09T04:15:38.347Z,3308
2017-07-09T04:16:38.324Z,3368
2017-07-09T04:17:38.609Z,3452
2017-07-09T04:18:38.286Z,3552
2017-07-09T04:19:37.960Z,3688
2017-07-09T04:20:38.249Z,3884
2017-07-09T04:21:38.222Z,4116
2017-07-09T04:22:37.897Z,4340
2017-07-09T04:23:38.484Z,4508
2017-07-09T04:24:37.861Z,4460
2017-07-09T04:25:38.450Z,4036
2017-07-09T04:26:38.122Z,3540
2017-07-09T04:27:38.103Z,3200
2017-07-09T04:28:38.386Z,3032
2017-07-09T04:29:38.067Z,3040
2017-07-09T04:30:38.047Z,3192
2017-07-09T04:31:38.327Z,3464
2017-07-09T04:32:38.001Z,3796
2017-07-09T04:33:37.987Z,4188
2017-07-09T04:34:37.963Z,4612
2017-07-09T04:35:37.636Z,5000
2017-07-09T04:36:38.229Z,5264
2017-07-09T04:37:37.906Z,5616
2017-07-09T04:38:38.191Z,6228
2017-07-09T04:39:37.867Z,6856
2017-07-09T04:40:37.849Z,7420
2017-07-09T04:41:37.525Z,7832
2017-07-09T04:42:37.510Z,7872
2017-07-09T04:43:38.099Z,7564
2017-07-09T04:44:37.770Z,7124
2017-07-09T04:45:37.754Z,6560
2017-07-09T04:46:38.032Z,5888
2017-07-09T04:47:37.712Z,5348
2017-07-09T04:48:37.697Z,5064
2017-07-09T04:49:37.673Z,4988
2017-07-09T04:50:37.654Z,5012
2017-07-09T04:51:37.638Z,5096
2017-07-09T04:52:37.915Z,5168
2017-07-09T04:53:37.590Z,5196
2017-07-09T04:54:37.581Z,5204
2017-07-09T04:55:37.556Z,5212
2017-07-09T04:56:37.542Z,5248
2017-07-09T04:57:37.519Z,5348
2017-07-09T04:58:37.806Z,5488
2017-07-09T04:59:37.783Z,5604
2017-07-09T05:00:37.767Z,5688
2017-07-09T05:01:37.761Z,5744
2017-07-09T05:02:37.115Z,5728
2017-07-09T05:03:37.410Z,5608
2017-07-09T05:04:37.690Z,5304
2017-07-09T05:05:37.372Z,4912
2017-07-09T05:06:37.350Z,4616
2017-07-09T05:07:37.651Z,4436
2017-07-09T05:08:37.612Z,4392
2017-07-09T05:09:37.292Z,4436
2017-07-09T05:10:37.590Z,4428
2017-07-09T05:11:37.561Z,4196
2017-07-09T05:12:37.547Z,3916
2017-07-09T05:13:37.526Z,3720
2017-07-09T05:14:37.506Z,3640
2017-07-09T05:15:37.481Z,3632
2017-07-09T05:16:37.165Z,3668
2017-07-09T05:17:37.151Z,3752
2017-07-09T05:18:37.121Z,3880
2017-07-09T05:19:37.412Z,4016
2017-07-09T05:20:37.388Z,4200
2017-07-09T05:21:37.067Z,4464
2017-07-09T05:22:36.738Z,4792
2017-07-09T05:23:36.722Z,5200
2017-07-09T05:24:37.315Z,5652
2017-07-09T05:25:37.293Z,6084
2017-07-09T05:26:37.354Z,6412
2017-07-09T05:27:37.256Z,6600
2017-07-09T05:28:37.239Z,6692
2017-07-09T05:29:37.237Z,6776
2017-07-09T05:30:37.208Z,6872
2017-07-09T05:31:37.181Z,6984
2017-07-09T05:32:36.867Z,7128
2017-07-09T05:33:37.142Z,7320
2017-07-09T05:34:37.127Z,7532
2017-07-09T05:35:37.107Z,7724
2017-07-09T05:36:37.095Z,7940
2017-07-09T05:37:37.069Z,8164
2017-07-09T05:38:36.750Z,8308
2017-07-09T05:39:37.037Z,8336
2017-07-09T05:40:37.072Z,8300
2017-07-09T05:41:36.998Z,8232
2017-07-09T05:42:36.974Z,8224
2017-07-09T05:43:36.961Z,8360
2017-07-09T05:44:36.939Z,8648
2017-07-09T05:45:36.927Z,9088
2017-07-09T05:46:36.910Z,9640
2017-07-09T05:47:36.888Z,10280
2017-07-09T05:48:36.566Z,11000
2017-07-09T05:49:36.902Z,11784
2017-07-09T05:50:36.832Z,12616
2017-07-09T05:51:36.810Z,13456
2017-07-09T05:52:36.792Z,14240
2017-07-09T05:53:36.774Z,14904
2017-07-09T05:54:36.756Z,15260
2017-07-09T05:55:36.738Z,15436
2017-07-09T05:56:36.725Z,15540
2017-07-09T05:57:36.730Z,15536
2017-07-09T05:58:36.695Z,15780
2017-07-09T05:59:36.369Z,16148
2017-07-09T06:00:36.653Z,16336
2017-07-09T06:01:36.639Z,16456
2017-07-09T06:02:36.312Z,16604
2017-07-09T06:03:36.602Z,17076
2017-07-09T06:04:36.276Z,17856
2017-07-09T06:05:36.568Z,17792
2017-07-09T06:06:36.241Z,17824
2017-07-09T06:07:36.222Z,17664
2017-07-09T06:08:36.209Z,17004
2017-07-09T06:09:36.206Z,15880
2017-07-09T06:10:36.487Z,15604
2017-07-09T06:11:37.016Z,15632
2017-07-09T06:12:36.451Z,15936
2017-07-09T06:13:36.431Z,16048
2017-07-09T06:14:36.411Z,15972
2017-07-09T06:15:36.699Z,16016
2017-07-09T06:16:36.392Z,15180
2017-07-09T06:17:36.368Z,14556
2017-07-09T06:18:36.041Z,14600
2017-07-09T06:19:36.024Z,14968
2017-07-09T06:20:36.315Z,15540
2017-07-09T06:21:36.310Z,15912
2017-07-09T06:22:35.365Z,16232
2017-07-09T06:23:35.958Z,16076
2017-07-09T06:24:36.249Z,15944
2017-07-09T06:25:35.623Z,16064
2017-07-09T06:26:35.909Z,15336
2017-07-09T06:27:35.590Z,15900
2017-07-09T06:28:35.570Z,16512
2017-07-09T06:29:36.165Z,17020
2017-07-09T06:30:35.843Z,17008
2017-07-09T06:31:36.143Z,16996
2017-07-09T06:32:35.812Z,16536
2017-07-09T06:33:36.102Z,14732
2017-07-09T06:34:35.790Z,13700
2017-07-09T06:35:35.776Z,12988
2017-07-09T06:36:36.055Z,13248
2017-07-09T06:37:36.039Z,13136
2017-07-09T06:38:35.716Z,14376
2017-07-09T06:39:36.002Z,16944
2017-07-09T06:40:35.687Z,18976
2017-07-09T06:41:35.668Z,19680
2017-07-09T06:42:35.655Z,18080
2017-07-09T06:43:35.634Z,16220
2017-07-09T06:44:35.618Z,14748
2017-07-09T06:45:35.601Z,13540
2017-07-09T06:46:35.589Z,13872
2017-07-09T06:47:35.576Z,14888
2017-07-09T06:48:35.557Z,16696
2017-07-09T06:49:35.538Z,18432
2017-07-09T06:50:35.217Z,19424
2017-07-09T06:51:35.507Z,19488
2017-07-09T06:52:35.487Z,19584
2017-07-09T06:53:35.479Z,20160
2017-07-09T06:54:35.458Z,20320
2017-07-09T06:55:35.446Z,18976
2017-07-09T06:56:35.429Z,18176
2017-07-09T06:57:35.421Z,18272
2017-07-09T06:58:35.398Z,18496
2017-07-09T06:59:35.686Z,17952
2017-07-09T07:00:35.386Z,17272
2017-07-09T07:01:35.352Z,17728
2017-07-09T07:02:35.337Z,17952
2017-07-09T07:03:35.020Z,18656
2017-07-09T07:04:35.305Z,19936
2017-07-09T07:05:35.598Z,20512
2017-07-09T07:06:35.276Z,21344
2017-07-09T07:07:34.956Z,22656
2017-07-09T07:08:34.635Z,24384
2017-07-09T07:09:34.928Z,24512
2017-07-09T07:10:35.214Z,24128
2017-07-09T07:11:35.201Z,24320
2017-07-09T07:12:35.243Z,23584
2017-07-09T07:13:35.482Z,23264
2017-07-09T07:14:35.478Z,22592
2017-07-09T07:15:35.194Z,21952
2017-07-09T07:16:35.437Z,22848
2017-07-09T07:17:35.112Z,22720
2017-07-09T07:18:35.410Z,22112
2017-07-09T07:19:35.086Z,22016
2017-07-09T07:20:35.076Z,20160
2017-07-09T07:21:35.062Z,21280
2017-07-09T07:22:34.738Z,19680
2017-07-09T07:23:35.028Z,20064
2017-07-09T07:24:35.013Z,21984
2017-07-09T07:25:35.313Z,22720
2017-07-09T07:26:34.985Z,24736
2017-07-09T07:27:35.274Z,24096
2017-07-09T07:28:34.963Z,24640
2017-07-09T07:29:34.946Z,26080
2017-07-09T07:30:35.294Z,26016
2017-07-09T07:31:34.918Z,24832
2017-07-09T07:32:34.904Z,23328
2017-07-09T07:33:34.893Z,24000
2017-07-09T07:34:35.198Z,24224
2017-07-09T07:35:35.175Z,24224
2017-07-09T07:36:35.162Z,22272
2017-07-09T07:37:34.837Z,23104
2017-07-09T07:38:34.824Z,25696
2017-07-09T07:39:35.184Z,26944
2017-07-09T07:40:35.103Z,27424
2017-07-09T07:41:34.782Z,27872
2017-07-09T07:42:35.077Z,28320
2017-07-09T07:43:34.758Z,28896
2017-07-09T07:44:34.745Z,29568
2017-07-09T07:45:34.737Z,30080
2017-07-09T07:46:35.023Z,29920
2017-07-09T07:47:34.710Z,29824
2017-07-09T07:48:34.994Z,29408
2017-07-09T07:49:35.041Z,28896
2017-07-09T07:50:34.363Z,28608
2017-07-09T07:51:34.960Z,29376
2017-07-09T07:52:34.639Z,31296
2017-07-09T07:53:34.630Z,31424
2017-07-09T07:54:34.922Z,30368
2017-07-09T07:55:34.604Z,29344
2017-07-09T07:56:34.596Z,28576
2017-07-09T07:57:34.882Z,28640
2017-07-09T07:58:34.567Z,29280
2017-07-09T07:59:34.554Z,29856
2017-07-09T08:00:34.853Z,29728
2017-07-09T08:01:34.835Z,29984
2017-07-09T08:02:34.827Z,31136
2017-07-09T08:03:34.812Z,34016
2017-07-09T08:04:34.801Z,36992
2017-07-09T08:05:34.477Z,39584
2017-07-09T08:06:34.470Z,34592
2017-07-09T08:07:34.763Z,33408
2017-07-09T08:08:34.761Z,43584
2017-07-09T08:09:34.738Z,35008
2017-07-09T08:10:34.725Z,32192
2017-07-09T08:11:34.715Z,30432
2017-07-09T08:12:34.397Z,28512
2017-07-09T08:13:34.687Z,43872
2017-07-09T08:14:34.677Z,41184
2017-07-09T08:15:34.359Z,31648
2017-07-09T08:16:34.654Z,29344
2017-07-09T08:17:34.643Z,29312
2017-07-09T08:18:34.635Z,31456
2017-07-09T08:19:34.622Z,34464
2017-07-09T08:20:34.608Z,37472
2017-07-09T08:21:34.293Z,32800
2017-07-09T08:22:33.669Z,36928
2017-07-09T08:23:34.568Z,32864
2017-07-09T08:24:34.260Z,36448
2017-07-09T08:25:34.254Z,29472
2017-07-09T08:26:34.544Z,33728
2017-07-09T08:27:34.528Z,32576
2017-07-09T08:28:34.213Z,33984
2017-07-09T08:29:33.592Z,36768
2017-07-09T08:30:34.784Z,36640
2017-07-09T08:31:34.263Z,41376
2017-07-09T08:32:34.166Z,39968
2017-07-09T08:33:34.154Z,51456
2017-07-09T08:34:34.456Z,46688
2017-07-09T08:35:34.437Z,43456
2017-07-09T08:36:34.444Z,43296
2017-07-09T08:37:34.118Z,45952
2017-07-09T08:38:34.108Z,48224
2017-07-09T08:39:33.787Z,40480
2017-07-09T08:40:34.083Z,38336
2017-07-09T08:41:34.655Z,53984
2017-07-09T08:42:34.366Z,50496
2017-07-09T08:43:34.896Z,49248
2017-07-09T08:44:34.870Z,53056
2017-07-09T08:45:34.034Z,38656
2017-07-09T08:46:34.358Z,36640
2017-07-09T08:47:34.325Z,35360
2017-07-09T08:48:34.311Z,39776
2017-07-09T08:49:34.302Z,47968
2017-07-09T08:50:34.292Z,50272
2017-07-09T08:51:34.283Z,49248
2017-07-09T08:52:33.969Z,54720
2017-07-09T08:53:34.265Z,37984
2017-07-09T08:54:34.255Z,40640
2017-07-09T08:55:34.243Z,42112
2017-07-09T08:56:34.099Z,44064
2017-07-09T08:57:33.923Z,52096
2017-07-09T08:58:34.219Z,62752
2017-07-09T08:59:34.227Z,61984
2017-07-09T09:00:33.893Z,52672
2017-07-09T09:01:33.582Z,48352
2017-07-09T09:02:34.185Z,71808
2017-07-09T09:03:34.178Z,77024
2017-07-09T09:04:33.557Z,78560
2017-07-09T09:05:33.551Z,77152
2017-07-09T09:06:34.167Z,76128
2017-07-09T09:07:34.144Z,77088
2017-07-09T09:08:34.140Z,78656
2017-07-09T09:09:33.522Z,78752
2017-07-09T09:10:34.130Z,76320
2017-07-09T09:11:34.117Z,74592
2017-07-09T09:12:33.808Z,56672
2017-07-09T09:13:34.112Z,45440
2017-07-09T09:14:34.105Z,32448
2017-07-09T09:15:34.101Z,30912
2017-07-09T09:16:34.093Z,31296
2017-07-09T09:17:34.083Z,33600
2017-07-09T09:18:33.788Z,79456
2017-07-09T09:19:33.780Z,48544
2017-07-09T09:20:33.774Z,32000
2017-07-09T09:21:33.758Z,28896
2017-07-09T09:22:33.144Z,27136
2017-07-09T09:23:33.746Z,29728
2017-07-09T09:24:34.044Z,31264
2017-07-09T09:25:34.036Z,34272
2017-07-09T09:26:34.049Z,35872
2017-07-09T09:27:33.715Z,36768
2017-07-09T09:28:34.004Z,38080
2017-07-09T09:29:33.707Z,40960
2017-07-09T09:30:33.696Z,64640
2017-07-09T09:31:33.691Z,44256
2017-07-09T09:32:33.985Z,71072
2017-07-09T09:33:33.674Z,77568
2017-07-09T09:34:33.358Z,80160
2017-07-09T09:35:33.971Z,44096
2017-07-09T09:36:33.650Z,52608
2017-07-09T09:37:33.035Z,51520
2017-07-09T09:38:33.640Z,45248
2017-07-09T09:39:33.936Z,50752
2017-07-09T09:40:33.617Z,43808
2017-07-09T09:41:33.613Z,31744
2017-07-09T09:42:33.914Z,27584
2017-07-09T09:43:33.902Z,25504
2017-07-09T09:44:33.591Z,23072
2017-07-09T09:45:33.592Z,21952
2017-07-09T09:46:33.580Z,21888
2017-07-09T09:47:33.874Z,21376
2017-07-09T09:48:33.869Z,21184
2017-07-09T09:49:33.860Z,20832
2017-07-09T09:50:33.241Z,20160
2017-07-09T09:51:33.231Z,19776
2017-07-09T09:52:33.831Z,20512
2017-07-09T09:53:33.821Z,21184
2017-07-09T09:54:33.818Z,22080
2017-07-09T09:55:33.498Z,20928
2017-07-09T09:56:33.485Z,20032
2017-07-09T09:57:33.784Z,19360
2017-07-09T09:58:33.165Z,19168
2017-07-09T09:59:33.454Z,18880
2017-07-09T10:00:33.753Z,18464
2017-07-09T10:01:33.743Z,18464
2017-07-09T10:02:33.430Z,18624
2017-07-09T10:03:33.720Z,19040
2017-07-09T10:04:33.713Z,19232
2017-07-09T10:05:33.398Z,18368
2017-07-09T10:06:33.687Z,17920
2017-07-09T10:07:33.368Z,18976
2017-07-09T10:08:33.662Z,19520
2017-07-09T10:09:33.353Z,19936
2017-07-09T10:10:33.647Z,20192
2017-07-09T10:11:33.628Z,20000
2017-07-09T10:12:33.612Z,19584
2017-07-09T10:13:33.299Z,20064
2017-07-09T10:14:32.984Z,20832
2017-07-09T10:15:33.582Z,21088
2017-07-09T10:16:33.261Z,20832
2017-07-09T10:17:32.951Z,20096
2017-07-09T10:18:33.239Z,19840
2017-07-09T10:19:33.231Z,19392
2017-07-09T10:20:33.216Z,19392
2017-07-09T10:21:33.511Z,19584
2017-07-09T10:22:32.581Z,20320
2017-07-09T10:23:32.874Z,20448
2017-07-09T10:24:33.179Z,20320
2017-07-09T10:25:33.468Z,20864
2017-07-09T10:26:33.148Z,22496
2017-07-09T10:27:32.831Z,28384
2017-07-09T10:28:33.123Z,36384
2017-07-09T10:29:33.106Z,38528
2017-07-09T10:30:33.096Z,40352
2017-07-09T10:31:33.385Z,54272
2017-07-09T10:32:33.386Z,79168
2017-07-09T10:33:33.369Z,36704
2017-07-09T10:34:33.051Z,73952
2017-07-09T10:35:33.040Z,46368
2017-07-09T10:36:33.024Z,79744
2017-07-09T10:37:33.319Z,79584
2017-07-09T10:38:33.315Z,74144
2017-07-09T10:39:33.299Z,46336
2017-07-09T10:40:32.684Z,70368
2017-07-09T10:41:33.292Z,69056
2017-07-09T10:42:32.970Z,62880
2017-07-09T10:43:33.264Z,70144
2017-07-09T10:44:33.269Z,55296
2017-07-09T10:45:32.944Z,68960
2017-07-09T10:46:33.233Z,62144
2017-07-09T10:47:33.227Z,31936
2017-07-09T10:48:32.919Z,29696
2017-07-09T10:49:32.911Z,28576
2017-07-09T10:50:33.214Z,29152
2017-07-09T10:51:32.892Z,32512
2017-07-09T10:52:32.879Z,32064
2017-07-09T10:53:32.574Z,27776
2017-07-09T10:54:32.563Z,28480
2017-07-09T10:55:32.855Z,33376
2017-07-09T10:56:32.852Z,39840
2017-07-09T10:57:32.847Z,41088
2017-07-09T10:58:33.138Z,58624
2017-07-09T10:59:33.127Z,71360
2017-07-09T11:00:33.377Z,79008
2017-07-09T11:01:32.811Z,74464
2017-07-09T11:02:32.801Z,78464
2017-07-09T11:03:33.095Z,80224
2017-07-09T11:04:33.095Z,78944
2017-07-09T11:05:33.084Z,75104
2017-07-09T11:06:32.769Z,76064
2017-07-09T11:07:32.771Z,80608
2017-07-09T11:08:33.064Z,81088
2017-07-09T11:09:32.815Z,81280
2017-07-09T11:10:32.441Z,81472
2017-07-09T11:11:32.740Z,74848
2017-07-09T11:12:32.432Z,70048
2017-07-09T11:13:33.032Z,70560
2017-07-09T11:14:33.596Z,63968
2017-07-09T11:15:32.412Z,68256
2017-07-09T11:16:32.106Z,69888
2017-07-09T11:17:32.404Z,71424
2017-07-09T11:18:33.009Z,69152
2017-07-09T11:19:32.999Z,35008
2017-07-09T11:20:32.693Z,38816
2017-07-09T11:21:32.996Z,55200
2017-07-09T11:22:32.686Z,63872
2017-07-09T11:23:32.377Z,55872
2017-07-09T11:24:32.986Z,65088
2017-07-09T11:25:32.371Z,71296
2017-07-09T11:26:32.975Z,70528
2017-07-09T11:27:32.368Z,82624
2017-07-09T11:28:32.666Z,71200
2017-07-09T11:29:32.355Z,62816
2017-07-09T11:30:32.352Z,76352
2017-07-09T11:31:32.347Z,73920
2017-07-09T11:32:32.955Z,39616
2017-07-09T11:33:32.339Z,55072
2017-07-09T11:34:32.340Z,57408
2017-07-09T11:35:32.639Z,43552
2017-07-09T11:36:32.330Z,57568
2017-07-09T11:37:32.326Z,67200
2017-07-09T11:38:32.981Z,68736
2017-07-09T11:39:32.316Z,75712
2017-07-09T11:40:32.613Z,53280
2017-07-09T11:41:32.919Z,38752
2017-07-09T11:42:32.609Z,74976
2017-07-09T11:43:32.598Z,73760
2017-07-09T11:44:32.593Z,74656
2017-07-09T11:45:32.287Z,72576
2017-07-09T11:46:32.588Z,74784
2017-07-09T11:47:32.589Z,83680
2017-07-09T11:48:32.885Z,85024
2017-07-09T11:49:32.874Z,84096
2017-07-09T11:50:32.874Z,77824
2017-07-09T11:51:32.566Z,77760
2017-07-09T11:52:32.557Z,50880
2017-07-09T11:53:32.552Z,42944
2017-07-09T11:54:32.553Z,74464
2017-07-09T11:55:32.854Z,42144
2017-07-09T11:56:32.555Z,43712
2017-07-09T11:57:32.849Z,44832
2017-07-09T11:58:32.536Z,76448
2017-07-09T11:59:32.534Z,55168
2017-07-09T12:00:32.841Z,38176
2017-07-09T12:01:32.230Z,37120
2017-07-09T12:02:32.227Z,41568
2017-07-09T12:03:32.516Z,48384
2017-07-09T12:04:32.519Z,42624
2017-07-09T12:05:32.508Z,36192
2017-07-09T12:06:32.506Z,32928
2017-07-09T12:07:32.500Z,32448
2017-07-09T12:08:32.797Z,57568
2017-07-09T12:09:32.797Z,35616
2017-07-09T12:10:32.489Z,60896
2017-07-09T12:11:32.486Z,38368
2017-07-09T12:12:32.170Z,38400
2017-07-09T12:13:32.473Z,42432
2017-07-09T12:14:32.465Z,89984
2017-07-09T12:15:32.769Z,47520
2017-07-09T12:16:32.463Z,46208
2017-07-09T12:17:32.151Z,68000
2017-07-09T12:18:32.444Z,49440
2017-07-09T12:19:32.438Z,80032
2017-07-09T12:20:32.739Z,74496
2017-07-09T12:21:32.430Z,31840
2017-07-09T12:22:32.966Z,28480
2017-07-09T12:23:32.120Z,47968
2017-07-09T12:24:32.413Z,31232
2017-07-09T12:25:32.713Z,36640
2017-07-09T12:26:32.403Z,38528
2017-07-09T12:27:32.401Z,45024
2017-07-09T12:28:32.701Z,40160
2017-07-09T12:29:32.695Z,38208
2017-07-09T12:30:32.381Z,34592
2017-07-09T12:31:32.072Z,35968
2017-07-09T12:32:32.369Z,56000
2017-07-09T12:33:32.057Z,80608
2017-07-09T12:34:32.656Z,67360
2017-07-09T12:35:32.355Z,70592
2017-07-09T12:36:32.045Z,66880
2017-07-09T12:37:32.798Z,29632
2017-07-09T12:38:33.262Z,29408
2017-07-09T12:39:32.325Z,25824
2017-07-09T12:40:32.624Z,27072
2017-07-09T12:41:32.011Z,31040
2017-07-09T12:42:32.315Z,44800
2017-07-09T12:43:31.999Z,42496
2017-07-09T12:44:32.608Z,75840
2017-07-09T12:45:31.985Z,86336
2017-07-09T12:46:31.673Z,58368
2017-07-09T12:47:31.973Z,70976
2017-07-09T12:48:31.966Z,85792
2017-07-09T12:49:32.265Z,82624
2017-07-09T12:50:32.259Z,85280
2017-07-09T12:51:32.254Z,84672
2017-07-09T12:52:32.246Z,82624
2017-07-09T12:53:32.553Z,85728
2017-07-09T12:54:32.544Z,84512
2017-07-09T12:55:32.547Z,81888
2017-07-09T12:56:32.542Z,81248
2017-07-09T12:57:32.536Z,77984
2017-07-09T12:58:32.534Z,71552
2017-07-09T12:59:32.225Z,59264
2017-07-09T13:00:33.509Z,39872
2017-07-09T13:01:33.333Z,26272
2017-07-09T13:02:32.364Z,20704
2017-07-09T13:03:32.520Z,24064
2017-07-09T13:04:32.211Z,50656
2017-07-09T13:05:32.512Z,76384
2017-07-09T13:06:32.205Z,66272
2017-07-09T13:07:32.511Z,39232
2017-07-09T13:08:31.893Z,70112
2017-07-09T13:09:32.189Z,80480
2017-07-09T13:10:32.489Z,85408
2017-07-09T13:11:32.184Z,80000
2017-07-09T13:12:32.182Z,86624
2017-07-09T13:13:32.489Z,86112
2017-07-09T13:14:32.478Z,61600
2017-07-09T13:15:32.173Z,80224
2017-07-09T13:16:31.868Z,32128
2017-07-09T13:17:32.918Z,30816
2017-07-09T13:18:32.164Z,55904
2017-07-09T13:19:32.158Z,50080
2017-07-09T13:20:32.525Z,84000
2017-07-09T13:21:32.148Z,86272
2017-07-09T13:22:31.839Z,40192